Time;durP1;ratioP1;P1;durP2;ratioP2;P2;SDS_P1;SDS_P2;PMS_P1;PMS_P2;Temp;Humidity;BMP_temperature;BMP_pressure;BME280_temperature;BME280_humidity;BME280_pressure;Samples;Min_cycle;Max_cycle;Signal;HPM_P1;HPM_P2
2021/12/21 00:03:01;;;;;;;1999.90;999.90;;;;;;;4.39;73.50;102193.41;15587288;28;20074;-66
2021/12/21 00:10:35;;;;;;;1999.90;999.90;;;;;;;4.29;73.78;102187.72;15556648;28;20517;-66
2021/12/21 00:18:19;;;;;;;1999.90;999.90;;;;;;;4.38;73.84;102201.91;15582674;28;20454;-65
2021/12/21 00:25:53;;;;;;;1999.90;999.90;;;;;;;4.33;74.14;102198.00;15621355;28;20037;-64
2021/12/21 00:33:25;;;;;;;1999.90;999.90;;;;;;;4.32;74.14;102199.09;15594070;28;20064;-66
2021/12/21 00:40:59;;;;;;;1999.90;999.90;;;;;;;4.21;74.47;102177.94;15589320;28;20580;-65
2021/12/21 00:48:34;;;;;;;1999.90;999.90;;;;;;;4.29;73.79;102184.97;15610412;28;20049;-65
2021/12/21 00:56:08;;;;;;;1999.90;999.90;;;;;;;4.20;74.46;102184.56;15579306;28;20133;-65
2021/12/21 01:03:45;;;;;;;1999.90;999.90;;;;;;;4.18;74.37;102183.16;15596987;28;20058;-65
2021/12/21 01:11:26;;;;;;;1999.90;999.90;;;;;;;4.35;74.14;102182.00;15554673;28;20551;-66
2021/12/21 01:19:11;;;;;;;1999.90;999.90;;;;;;;4.23;74.15;102188.75;15599184;28;20042;-65
2021/12/21 01:26:58;;;;;;;1999.90;999.90;;;;;;;4.31;74.08;102186.38;15576472;28;20038;-65
2021/12/21 01:34:42;;;;;;;1999.90;999.90;;;;;;;4.29;73.89;102180.28;15563155;28;20081;-65
2021/12/21 01:42:32;;;;;;;1999.90;999.90;;;;;;;4.24;74.42;102171.91;15576972;28;20084;-66
2021/12/21 01:50:06;;;;;;;1999.90;999.90;;;;;;;4.18;74.03;102161.06;15604184;28;20099;-65
2021/12/21 01:57:43;;;;;;;1999.90;999.90;;;;;;;4.26;73.73;102152.28;15613748;28;20041;-65
2021/12/21 02:05:20;;;;;;;1999.90;999.90;;;;;;;4.19;74.04;102146.97;15594824;28;20049;-63
2021/12/21 02:12:54;;;;;;;1999.90;999.90;;;;;;;4.24;73.77;102146.19;15606630;28;20056;-64
2021/12/21 02:20:41;;;;;;;1999.90;999.90;;;;;;;4.28;73.87;102147.38;15617695;28;20502;-64
2021/12/21 02:36:24;;;;;;;1999.90;999.90;;;;;;;4.03;75.28;102128.50;15558553;28;20042;-64
2021/12/21 02:43:59;;;;;;;1999.90;999.90;;;;;;;4.14;74.96;102126.72;15580331;28;20092;-65
2021/12/21 02:51:49;;;;;;;1999.90;999.90;;;;;;;4.11;75.26;102128.06;15623332;28;20072;-65
2021/12/21 02:59:23;;;;;;;1999.90;999.90;;;;;;;4.27;74.65;102145.66;15576313;28;20073;-65
2021/12/21 03:07:27;;;;;;;1999.90;999.90;;;;;;;4.28;74.19;102125.25;15613487;28;20052;-64
2021/12/21 03:15:00;;;;;;;1999.90;999.90;;;;;;;4.18;74.66;102130.66;15619632;28;20076;-65
2021/12/21 03:22:34;;;;;;;1999.90;999.90;;;;;;;4.21;74.26;102121.84;15581122;28;20555;-65
2021/12/21 03:30:26;;;;;;;;;;;;;;;;;;;;;
2021/12/21 03:38:46;;;;;;;1999.90;999.90;;;;;;;4.38;74.52;102113.47;15551792;28;20052;-65
2021/12/21 03:47:10;;;;;;;1999.90;999.90;;;;;;;4.29;74.07;102105.66;15574376;28;20033;-65
2021/12/21 03:55:07;;;;;;;1999.90;999.90;;;;;;;3.88;75.59;102109.81;15543970;28;20049;-65
2021/12/21 04:11:04;;;;;;;1999.90;999.90;;;;;;;4.15;75.00;102117.34;15541205;28;20139;-63
2021/12/21 04:18:39;;;;;;;1999.90;999.90;;;;;;;3.85;75.42;102115.81;15557930;28;20440;-64
2021/12/21 04:26:15;;;;;;;1999.90;999.90;;;;;;;4.16;74.91;102116.22;15555803;28;20052;-65
2021/12/21 04:33:48;;;;;;;1999.90;999.90;;;;;;;4.32;74.54;102104.31;15555267;28;20458;-64
2021/12/21 04:41:24;;;;;;;1999.90;999.90;;;;;;;4.17;74.31;102104.97;15554647;28;20160;-65
2021/12/21 04:48:56;;;;;;;1999.90;999.90;;;;;;;3.86;75.82;102109.22;15572013;28;20463;-66
2021/12/21 04:56:30;;;;;;;1999.90;999.90;;;;;;;3.91;76.21;102106.53;15571334;28;20089;-67
2021/12/21 05:04:03;;;;;;;1999.90;999.90;;;;;;;4.07;74.50;102115.88;15583236;28;20057;-66
2021/12/21 05:11:39;;;;;;;1999.90;999.90;;;;;;;4.17;74.42;102120.66;15590258;28;20467;-66
2021/12/21 05:19:12;;;;;;;1999.90;999.90;;;;;;;3.60;75.87;102118.22;15600717;28;20041;-65
2021/12/21 05:26:46;;;;;;;1999.90;999.90;;;;;;;3.95;74.49;102115.13;15589158;28;20038;-63
2021/12/21 05:34:19;;;;;;;1999.90;999.90;;;;;;;4.04;74.75;102116.34;15600193;28;20057;-64
2021/12/21 05:41:54;;;;;;;1999.90;999.90;;;;;;;3.90;75.06;102112.31;15578523;28;20048;-64
2021/12/21 05:49:27;;;;;;;1999.90;999.90;;;;;;;4.00;73.90;102117.97;15576167;28;20049;-63
2021/12/21 05:57:02;;;;;;;1999.90;999.90;;;;;;;4.18;74.14;102120.44;15594327;28;20108;-65
2021/12/21 06:04:35;;;;;;;1999.90;999.90;;;;;;;4.17;73.82;102135.34;15568986;28;20958;-65
2021/12/21 06:12:16;;;;;;;1999.90;999.90;;;;;;;4.26;73.71;102142.06;15571576;28;20049;-64
2021/12/21 06:27:38;;;;;;;1999.90;999.90;;;;;;;4.06;73.81;102141.78;15556191;28;20510;-64
2021/12/21 06:35:12;;;;;;;1999.90;999.90;;;;;;;4.10;73.43;102139.38;15591237;28;20045;-64
2021/12/21 06:42:49;;;;;;;1999.90;999.90;;;;;;;4.26;73.05;102136.56;15608643;28;20046;-64
2021/12/21 06:58:14;;;;;;;1999.90;999.90;;;;;;;4.21;73.78;102141.19;15566227;28;20419;-65
2021/12/21 07:05:46;;;;;;;1999.90;999.90;;;;;;;4.07;73.43;102149.03;15559578;28;20062;-64
2021/12/21 07:21:10;;;;;;;1999.90;999.90;;;;;;;4.24;73.08;102166.38;15540908;28;20405;-64
2021/12/21 07:28:45;;;;;;;1999.90;999.90;;;;;;;4.08;74.67;102158.16;15606392;28;20526;-65
2021/12/21 07:36:17;;;;;;;1999.90;999.90;;;;;;;4.29;73.80;102165.63;15601212;28;20060;-64
2021/12/21 07:43:54;;;;;;;1999.90;999.90;;;;;;;4.28;73.15;102169.47;15571006;28;20045;-64
2021/12/21 07:51:27;;;;;;;1999.90;999.90;;;;;;;4.31;73.25;102168.97;15597779;28;20045;-63
2021/12/21 07:59:02;;;;;;;1999.90;999.90;;;;;;;4.25;73.28;102183.78;15549728;28;20088;-60
2021/12/21 08:06:35;;;;;;;1999.90;999.90;;;;;;;4.24;72.79;102171.06;15617426;28;20073;-62
2021/12/21 08:14:09;;;;;;;1999.90;999.90;;;;;;;3.99;73.50;102177.06;15617504;28;20072;-63
2021/12/21 08:21:42;;;;;;;1999.90;999.90;;;;;;;4.34;72.79;102171.19;15577384;28;20502;-64
2021/12/21 08:29:18;;;;;;;1999.90;999.90;;;;;;;4.45;72.69;102181.28;15616646;28;20100;-62
2021/12/21 08:36:56;;;;;;;1999.90;999.90;;;;;;;4.50;71.61;102186.91;15601286;28;20046;-65
2021/12/21 08:44:30;;;;;;;1999.90;999.90;;;;;;;4.57;71.58;102187.53;15584197;28;20140;-64
2021/12/21 08:52:03;;;;;;;1999.90;999.90;;;;;;;4.50;71.71;102186.91;15590040;28;20096;-64
2021/12/21 08:59:37;;;;;;;1999.90;999.90;;;;;;;4.40;72.21;102184.00;15601544;28;20411;-65
2021/12/21 09:07:13;;;;;;;1999.90;999.90;;;;;;;4.44;72.43;102190.69;15608198;28;20503;-64
2021/12/21 09:14:47;;;;;;;1999.90;999.90;;;;;;;4.61;71.77;102194.25;15599944;28;20053;-64
2021/12/21 09:22:22;;;;;;;1999.90;999.90;;;;;;;4.71;71.71;102207.34;15564313;28;20626;-64
2021/12/21 09:29:56;;;;;;;1999.90;999.90;;;;;;;4.59;73.14;102199.19;15546589;28;20042;-64
2021/12/21 09:37:31;;;;;;;1999.90;999.90;;;;;;;4.56;72.74;102198.84;15564197;28;20065;-64
2021/12/21 09:45:06;;;;;;;1999.90;999.90;;;;;;;4.94;71.13;102209.00;15594347;28;20052;-62
2021/12/21 09:52:39;;;;;;;1999.90;999.90;;;;;;;4.89;70.94;102204.25;15630306;28;20055;-63
2021/12/21 10:00:17;;;;;;;1999.90;999.90;;;;;;;4.83;71.29;102215.53;15617691;28;20041;-64
2021/12/21 10:07:57;;;;;;;1999.90;999.90;;;;;;;4.76;71.39;102209.34;15623388;28;20579;-64
2021/12/21 10:15:41;;;;;;;1999.90;999.90;;;;;;;4.94;71.58;102203.47;15575212;28;20061;-65
2021/12/21 10:23:16;;;;;;;1999.90;999.90;;;;;;;4.47;72.10;102195.69;15543862;28;20042;-65
2021/12/21 10:30:54;;;;;;;1999.90;999.90;;;;;;;4.93;71.33;102196.28;15560486;28;20054;-65
2021/12/21 10:38:28;;;;;;;1999.90;999.90;;;;;;;4.90;71.46;102196.81;15542236;28;20060;-64
2021/12/21 10:46:03;;;;;;;1999.90;999.90;;;;;;;4.49;72.46;102195.47;15551721;28;20042;-64
2021/12/21 10:53:37;;;;;;;1999.90;999.90;;;;;;;4.79;72.52;102187.53;15564665;28;20042;-65
2021/12/21 11:01:15;;;;;;;1999.90;999.90;;;;;;;4.48;72.87;102189.09;15558373;28;20038;-65
2021/12/21 11:08:50;;;;;;;1999.90;999.90;;;;;;;4.80;69.87;102186.44;15558252;28;20070;-64
2021/12/21 11:16:35;;;;;;;1999.90;999.90;;;;;;;4.72;70.95;102186.91;15577472;28;20057;-64
2021/12/21 11:24:10;;;;;;;1999.90;999.90;;;;;;;4.57;70.75;102195.00;15619692;28;20049;-66
2021/12/21 11:31:46;;;;;;;1999.90;999.90;;;;;;;4.87;70.57;102177.94;15600455;28;20041;-63
2021/12/21 11:39:19;;;;;;;1999.90;999.90;;;;;;;4.67;71.39;102175.75;15600059;28;20529;-62
2021/12/21 11:46:58;;;;;;;1999.90;999.90;;;;;;;4.54;70.76;102167.88;15617436;28;20069;-63
2021/12/21 11:54:30;;;;;;;1999.90;999.90;;;;;;;4.27;71.36;102165.03;15616513;28;20050;-65
2021/12/21 12:02:06;;;;;;;1999.90;999.90;;;;;;;4.51;71.16;102162.88;15673667;28;20041;-65
2021/12/21 12:09:39;;;;;;;1999.90;999.90;;;;;;;4.57;71.68;102167.34;15659547;28;20047;-65
2021/12/21 12:17:16;;;;;;;1999.90;999.90;;;;;;;4.64;71.65;102166.06;15633794;28;20049;-62
2021/12/21 12:24:57;;;;;;;1999.90;999.90;;;;;;;4.56;71.27;102163.75;15597740;28;20041;-65
2021/12/21 12:32:36;;;;;;;1999.90;999.90;;;;;;;4.41;71.14;102158.03;15612231;28;20571;-65
2021/12/21 12:40:11;;;;;;;1999.90;999.90;;;;;;;4.27;71.45;102162.25;15596897;28;20045;-64
2021/12/21 12:47:49;;;;;;;1999.90;999.90;;;;;;;4.05;71.63;102167.75;15639222;28;20159;-63
2021/12/21 12:55:23;;;;;;;1999.90;999.90;;;;;;;4.08;71.62;102167.28;15604619;28;20042;-64
2021/12/21 13:03:00;;;;;;;1999.90;999.90;;;;;;;3.97;72.06;102163.53;15632230;28;20045;-64
2021/12/21 13:10:33;;;;;;;1999.90;999.90;;;;;;;3.77;71.43;102171.50;15600062;28;20041;-62
2021/12/21 13:18:08;;;;;;;1999.90;999.90;;;;;;;4.24;70.88;102174.66;15545972;28;20046;-67
2021/12/21 13:25:52;;;;;;;1999.90;999.90;;;;;;;4.30;70.19;102176.41;15557371;28;20046;-64
2021/12/21 13:33:27;;;;;;;;;;;;;;;4.27;70.25;102171.41;15614111;28;20038;-64
2021/12/21 13:41:06;;;;;;;1999.90;999.90;;;;;;;4.17;70.30;102175.94;15619098;28;19933;-64
2021/12/21 13:48:40;;;;;;;1999.90;999.90;;;;;;;3.70;72.05;102179.94;15606540;28;20145;-64
2021/12/21 13:56:14;;;;;;;1999.90;999.90;;;;;;;3.72;71.92;102183.28;15547362;28;20573;-63
2021/12/21 14:03:54;;;;;;;1999.90;999.90;;;;;;;3.87;71.29;102190.16;15561964;28;20038;-64
2021/12/21 14:11:28;;;;;;;1999.90;999.90;;;;;;;3.94;70.61;102193.56;15614814;28;20313;-64
2021/12/21 14:19:05;;;;;;;1999.90;999.90;;;;;;;3.92;70.27;102191.06;15603626;28;20526;-64
2021/12/21 14:26:42;;;;;;;1999.90;999.90;;;;;;;3.48;72.91;102199.19;15620205;28;20049;-64
2021/12/21 14:34:23;;;;;;;1999.90;999.90;;;;;;;3.47;73.39;102207.72;15594609;28;20049;-64
2021/12/21 14:41:57;;;;;;;1999.90;999.90;;;;;;;3.04;75.16;102209.13;15601161;28;20076;-64
2021/12/21 14:49:34;;;;;;;1999.90;999.90;;;;;;;3.59;73.17;102204.88;15621180;28;20080;-64
2021/12/21 14:57:08;;;;;;;1999.90;999.90;;;;;;;3.97;71.24;102199.44;15610062;28;20053;-64
2021/12/21 15:04:43;;;;;;;1999.90;999.90;;;;;;;3.78;71.79;102202.69;15620079;28;20452;-64
2021/12/21 15:12:17;;;;;;;1999.90;999.90;;;;;;;3.64;72.14;102207.69;15619833;28;20060;-64
2021/12/21 15:19:51;;;;;;;1999.90;999.90;;;;;;;3.71;72.01;102211.16;15610546;28;20042;-64
2021/12/21 15:27:24;;;;;;;1999.90;999.90;;;;;;;3.37;73.41;102208.38;15601405;28;20553;-64
2021/12/21 15:35:00;;;;;;;;;;;;;;;3.20;73.84;102215.75;15594903;28;20049;-62
2021/12/21 15:42:35;;;;;;;1999.90;999.90;;;;;;;3.25;74.08;102212.28;15589813;28;20363;-61
2021/12/21 15:50:10;;;;;;;1999.90;999.90;;;;;;;3.40;73.57;102212.53;15595019;28;20092;-63
2021/12/21 15:57:44;;;;;;;1999.90;999.90;;;;;;;3.42;73.56;102215.88;15596728;28;20053;-63
2021/12/21 16:05:19;;;;;;;1999.90;999.90;;;;;;;3.72;72.83;102208.13;15566588;28;20272;-63
2021/12/21 16:12:52;;;;;;;1999.90;999.90;;;;;;;3.33;72.90;102220.13;15585095;28;20053;-63
2021/12/21 16:20:26;;;;;;;1999.90;999.90;;;;;;;3.51;72.38;102217.16;15573002;28;20049;-64
2021/12/21 16:27:59;;;;;;;1999.90;999.90;;;;;;;3.39;73.19;102220.00;15583513;28;20484;-63
2021/12/21 16:35:33;;;;;;;1999.90;999.90;;;;;;;3.87;71.45;102202.03;15554744;28;20054;-64
2021/12/21 16:43:05;;;;;;;1999.90;999.90;;;;;;;3.71;72.51;102211.16;15580140;28;20295;-64
2021/12/21 16:50:40;;;;;;;1999.90;999.90;;;;;;;3.91;71.75;102219.75;15573597;28;20068;-63
2021/12/21 16:58:15;;;;;;;1999.90;999.90;;;;;;;4.06;71.54;102227.44;15607592;28;20050;-62
2021/12/21 17:05:50;;;;;;;1999.90;999.90;;;;;;;4.04;72.22;102213.03;15590223;28;20447;-63
2021/12/21 17:13:23;;;;;;;1999.90;999.90;;;;;;;3.89;72.82;102219.19;15595508;28;20515;-64
2021/12/21 17:20:57;;;;;;;1999.90;999.90;;;;;;;3.87;71.99;102215.00;15573639;28;20089;-63
2021/12/21 17:28:30;;;;;;;1999.90;999.90;;;;;;;3.66;73.10;102225.72;15619584;28;20072;-63
2021/12/21 17:36:09;;;;;;;;;;;;;;;4.20;71.55;102217.72;15601161;28;20111;-63
2021/12/21 17:43:42;;;;;;;1999.90;999.90;;;;;;;3.58;72.24;102219.75;15638371;28;19921;-63
2021/12/21 17:51:17;;;;;;;1999.90;999.90;;;;;;;3.47;72.84;102230.63;15599721;28;20178;-61
2021/12/21 17:58:50;;;;;;;1999.90;999.90;;;;;;;3.91;71.14;102233.56;15624665;28;20045;-62
2021/12/21 18:06:24;;;;;;;1999.90;999.90;;;;;;;3.63;71.78;102244.69;15640062;28;20436;-62
2021/12/21 18:13:56;;;;;;;1999.90;999.90;;;;;;;3.30;72.25;102245.47;15623841;28;20053;-61
2021/12/21 18:21:31;;;;;;;1999.90;999.90;;;;;;;3.60;71.62;102250.72;15621301;28;20050;-63
2021/12/21 18:29:03;;;;;;;1999.90;999.90;;;;;;;3.67;71.52;102251.41;15605197;28;20112;-63
2021/12/21 18:36:38;;;;;;;1999.90;999.90;;;;;;;3.89;70.98;102240.44;15560460;28;20138;-63
2021/12/21 18:44:11;;;;;;;1999.90;999.90;;;;;;;3.75;70.88;102249.06;15600652;28;20453;-61
2021/12/21 18:51:47;;;;;;;1999.90;999.90;;;;;;;4.02;70.18;102246.44;15613046;28;20058;-62
2021/12/21 18:59:19;;;;;;;1999.90;999.90;;;;;;;3.94;70.75;102257.06;15590297;28;20061;-62
2021/12/21 19:06:53;;;;;;;1999.90;999.90;;;;;;;3.62;71.31;102254.88;15563668;28;20100;-60
2021/12/21 19:14:26;;;;;;;1999.90;999.90;;;;;;;3.81;70.90;102257.41;15630481;28;20037;-60
2021/12/21 19:22:00;;;;;;;1999.90;999.90;;;;;;;3.57;71.59;102245.69;15571308;28;20065;-62
2021/12/21 19:29:33;;;;;;;1999.90;999.90;;;;;;;3.71;69.80;102252.56;15576593;28;20042;-62
2021/12/21 19:37:08;;;;;;;1999.90;999.90;;;;;;;3.74;70.55;102258.41;15587316;28;20052;-59
2021/12/21 19:44:40;;;;;;;1999.90;999.90;;;;;;;3.73;69.89;102261.44;15589724;28;20491;-62
2021/12/21 19:52:14;;;;;;;1999.90;999.90;;;;;;;3.77;70.01;102259.84;15571289;28;20375;-66
2021/12/21 19:59:47;;;;;;;1999.90;999.90;;;;;;;3.44;71.07;102263.41;15599464;28;20061;-66
2021/12/21 20:07:21;;;;;;;1999.90;999.90;;;;;;;3.89;69.84;102268.06;15631391;28;20144;-63
2021/12/21 20:14:54;;;;;;;1999.90;999.90;;;;;;;2.97;71.38;102263.59;15620192;28;20454;-63
2021/12/21 20:22:27;;;;;;;1999.90;999.90;;;;;;;3.33;70.98;102281.66;15594610;28;20080;-63
2021/12/21 20:30:00;;;;;;;1999.90;999.90;;;;;;;3.17;71.35;102288.84;15630627;28;20045;-64
2021/12/21 20:37:34;;;;;;;1999.90;999.90;;;;;;;3.20;71.19;102301.28;15584292;28;20046;-62
2021/12/21 20:45:08;;;;;;;1999.90;999.90;;;;;;;3.51;70.71;102299.97;15593027;28;20091;-63
2021/12/21 20:52:42;;;;;;;1999.90;999.90;;;;;;;3.31;70.89;102299.56;15552236;28;20453;-61
2021/12/21 21:00:17;;;;;;;1999.90;999.90;;;;;;;3.04;71.33;102305.66;15590067;28;20041;-61
2021/12/21 21:07:51;;;;;;;1999.90;999.90;;;;;;;3.03;71.98;102306.75;15594842;28;20049;-64
2021/12/21 21:15:23;;;;;;;1999.90;999.90;;;;;;;3.12;70.84;102308.03;15606159;28;20047;-61
2021/12/21 21:22:57;;;;;;;1999.90;999.90;;;;;;;2.83;72.09;102306.31;15613390;28;20087;-63
2021/12/21 21:30:33;;;;;;;1999.90;999.90;;;;;;;3.09;70.37;102315.97;15593206;28;20041;-61
2021/12/21 21:38:07;;;;;;;1999.90;999.90;;;;;;;2.98;71.98;102316.81;15595889;28;20376;-62
2021/12/21 21:45:39;;;;;;;1999.90;999.90;;;;;;;2.86;71.76;102325.13;15598694;28;20072;-61
2021/12/21 22:01:04;;;;;;;1999.90;999.90;;;;;;;2.92;71.91;102326.06;15602019;28;20526;-63
2021/12/21 22:08:38;;;;;;;1999.90;999.90;;;;;;;3.00;72.05;102329.28;15585899;28;20526;-63
2021/12/21 22:16:11;;;;;;;1999.90;999.90;;;;;;;3.20;71.60;102337.16;15567808;28;20044;-64
2021/12/21 22:23:47;;;;;;;1999.90;999.90;;;;;;;3.35;71.30;102331.13;15588919;28;20049;-63
2021/12/21 22:31:27;;;;;;;1999.90;999.90;;;;;;;3.35;70.87;102325.59;15566378;28;20042;-63
2021/12/21 22:39:01;;;;;;;1999.90;999.90;;;;;;;3.05;70.86;102336.84;15548778;28;20164;-64
2021/12/21 22:46:34;;;;;;;1999.90;999.90;;;;;;;2.98;71.93;102328.69;15591905;28;20045;-63
2021/12/21 22:54:08;;;;;;;1999.90;999.90;;;;;;;2.95;71.61;102333.88;15563414;28;20099;-62
2021/12/21 23:01:41;;;;;;;1999.90;999.90;;;;;;;3.17;71.09;102345.94;15583809;28;20069;-63
2021/12/21 23:09:15;;;;;;;1999.90;999.90;;;;;;;3.44;69.89;102347.06;15581639;28;20048;-63
2021/12/21 23:16:47;;;;;;;1999.90;999.90;;;;;;;3.07;70.58;102341.03;15560174;28;20072;-63
2021/12/21 23:24:21;;;;;;;1999.90;999.90;;;;;;;2.92;71.70;102340.72;15584899;28;20048;-62
2021/12/21 23:31:54;;;;;;;1999.90;999.90;;;;;;;2.91;71.39;102344.53;15574772;28;20061;-63
2021/12/21 23:39:28;;;;;;;1999.90;999.90;;;;;;;3.20;69.89;102356.47;15563857;28;20152;-63
2021/12/21 23:47:01;;;;;;;1999.90;999.90;;;;;;;3.15;70.57;102351.69;15584312;28;20046;-63
2021/12/21 23:54:35;;;;;;;1999.90;999.90;;;;;;;3.37;70.60;102349.09;15566673;28;20050;-63
